Time;durP1;ratioP1;P1;durP2;ratioP2;P2;SDS_P1;SDS_P2;PMS_P1;PMS_P2;Temp;Humidity;BMP_temperature;BMP_pressure;BME280_temperature;BME280_humidity;BME280_pressure;Samples;Min_cycle;Max_cycle;Signal;HPM_P1;HPM_P2
2023/02/25 00:01:05;;;;;;;1.20;1.10;;;8.60;43.40;;;;;;10364066;28;20702;-70
2023/02/25 00:06:12;;;;;;;1.53;1.10;;;8.60;43.50;;;;;;10361562;28;20666;-70
2023/02/25 00:11:17;;;;;;;1.83;1.20;;;8.60;43.70;;;;;;10361703;28;20753;-70
2023/02/25 00:16:22;;;;;;;1.23;1.13;;;8.70;43.70;;;;;;10362432;28;20226;-70
2023/02/25 00:21:28;;;;;;;2.20;1.33;;;8.70;43.50;;;;;;10364050;28;20230;-70
2023/02/25 00:26:31;;;;;;;2.33;1.57;;;8.70;43.40;;;;;;10362878;28;20234;-70
2023/02/25 00:31:34;;;;;;;1.60;1.50;;;8.60;43.30;;;;;;10361316;28;20219;-72
2023/02/25 00:36:39;;;;;;;1.30;1.20;;;8.60;43.40;;;;;;10362205;28;20233;-70
2023/02/25 00:41:42;;;;;;;1.93;1.73;;;8.60;43.60;;;;;;10361902;28;20226;-72
2023/02/25 00:46:46;;;;;;;2.03;1.83;;;8.50;43.60;;;;;;10361890;28;20273;-70
2023/02/25 00:51:50;;;;;;;2.40;2.20;;;8.50;43.60;;;;;;10362777;28;20718;-71
2023/02/25 00:56:54;;;;;;;2.23;2.00;;;8.50;43.60;;;;;;10360517;28;20594;-71
2023/02/25 01:01:57;;;;;;;2.33;2.13;;;8.50;43.60;;;;;;10361999;28;20222;-70
2023/02/25 01:07:01;;;;;;;2.97;2.33;;;8.50;43.60;;;;;;10358690;28;20774;-70
2023/02/25 01:12:06;;;;;;;2.33;2.03;;;8.40;43.70;;;;;;10361051;28;20222;-70
2023/02/25 01:17:09;;;;;;;4.03;2.80;;;8.40;43.80;;;;;;10359151;28;20222;-70
2023/02/25 01:22:14;;;;;;;2.80;2.60;;;8.40;43.50;;;;;;10362109;28;20226;-70
2023/02/25 01:27:17;;;;;;;3.13;2.90;;;8.40;43.60;;;;;;10358845;28;20245;-70
2023/02/25 01:32:20;;;;;;;3.17;2.80;;;8.30;43.50;;;;;;10360463;28;20230;-70
2023/02/25 01:37:24;;;;;;;4.37;3.20;;;8.30;43.40;;;;;;10359764;28;20234;-70
2023/02/25 01:42:28;;;;;;;3.20;3.00;;;8.30;43.50;;;;;;10360397;28;20596;-72
2023/02/25 01:47:34;;;;;;;3.87;3.47;;;8.30;43.40;;;;;;10358422;28;20744;-70
2023/02/25 01:52:41;;;;;;;3.50;3.20;;;8.30;43.20;;;;;;10361410;28;20233;-70
2023/02/25 01:57:44;;;;;;;3.50;3.20;;;8.30;43.30;;;;;;10358302;28;20494;-70
2023/02/25 02:02:49;;;;;;;3.40;3.10;;;8.30;43.30;;;;;;10360202;28;20248;-70
2023/02/25 02:07:54;;;;;;;3.17;2.97;;;8.20;43.30;;;;;;10356407;28;20687;-70
2023/02/25 02:12:57;;;;;;;3.80;3.50;;;8.20;43.20;;;;;;10360440;28;20523;-70
2023/02/25 02:18:02;;;;;;;4.27;3.40;;;8.20;43.30;;;;;;10358844;28;20218;-70
2023/02/25 02:23:44;;;;;;;3.80;3.50;;;8.10;43.20;;;;;;10358159;28;20225;-70
2023/02/25 02:29:27;;;;;;;3.73;3.43;;;8.10;43.50;;;;;;10356692;28;21188;-72
2023/02/25 02:34:41;;;;;;;3.53;3.23;;;8.10;43.40;;;;;;10360483;28;20233;-71
2023/02/25 02:39:53;;;;;;;3.93;3.63;;;8.00;43.40;;;;;;10357720;28;20732;-70
2023/02/25 02:45:01;;;;;;;4.10;3.80;;;8.00;43.50;;;;;;10358979;28;20904;-71
2023/02/25 02:50:09;;;;;;;4.40;4.00;;;8.00;43.40;;;;;;10356850;28;20226;-70
2023/02/25 02:55:21;;;;;;;4.00;3.70;;;8.00;43.50;;;;;;10358978;28;20599;-70
2023/02/25 03:00:30;;;;;;;4.50;4.10;;;8.00;43.60;;;;;;10367700;28;20250;-70
2023/02/25 03:05:36;;;;;;;5.50;4.50;;;7.90;43.80;;;;;;10363442;28;20641;-70
2023/02/25 03:10:40;;;;;;;4.97;4.57;;;7.90;43.70;;;;;;10364578;28;20238;-70
2023/02/25 03:15:44;;;;;;;4.93;4.50;;;7.90;43.50;;;;;;10363784;28;20742;-70
2023/02/25 03:20:50;;;;;;;5.37;4.80;;;7.90;44.20;;;;;;10366626;28;20237;-70
2023/02/25 03:25:59;;;;;;;5.47;4.97;;;7.90;43.50;;;;;;10365308;28;20222;-70
2023/02/25 03:31:08;;;;;;;5.53;5.03;;;7.80;43.70;;;;;;10363469;28;20567;-70
2023/02/25 03:36:16;;;;;;;6.17;5.07;;;7.80;43.80;;;;;;10364369;28;20226;-70
2023/02/25 03:41:25;;;;;;;5.70;4.60;;;7.80;43.70;;;;;;10362991;28;20718;-70
2023/02/25 03:46:29;;;;;;;5.90;4.77;;;7.80;43.70;;;;;;10363224;28;20253;-72
2023/02/25 03:51:35;;;;;;;4.70;4.30;;;7.70;43.40;;;;;;10364082;28;20238;-70
2023/02/25 03:56:44;;;;;;;4.83;4.33;;;7.70;43.40;;;;;;10363459;28;20244;-70
2023/02/25 04:01:50;;;;;;;4.03;3.73;;;7.70;43.20;;;;;;10364940;28;20249;-70
2023/02/25 04:06:55;;;;;;;4.07;3.77;;;7.60;43.10;;;;;;10361857;28;20226;-70
2023/02/25 04:11:58;;;;;;;4.33;3.93;;;7.60;43.10;;;;;;10364226;28;20715;-70
2023/02/25 04:17:03;;;;;;;3.90;3.60;;;7.60;43.00;;;;;;10362733;28;20230;-70
2023/02/25 04:22:08;;;;;;;4.10;3.53;;;7.70;43.00;;;;;;10363543;28;20222;-70
2023/02/25 04:27:14;;;;;;;4.03;3.73;;;7.70;42.90;;;;;;10361910;28;20230;-70
2023/02/25 04:32:17;;;;;;;4.30;3.40;;;7.70;42.90;;;;;;10361865;28;20766;-70
2023/02/25 04:37:22;;;;;;;3.73;3.23;;;7.80;42.70;;;;;;10361218;28;20578;-70
2023/02/25 04:42:25;;;;;;;3.60;3.20;;;7.80;42.10;;;;;;10362943;28;20554;-70
2023/02/25 04:47:28;;;;;;;3.73;3.27;;;7.70;42.30;;;;;;10360188;28;20717;-70
2023/02/25 04:52:32;;;;;;;4.00;2.90;;;7.70;42.00;;;;;;10360893;28;20237;-70
2023/02/25 04:57:41;;;;;;;2.73;2.20;;;7.60;41.20;;;;;;10360900;28;20231;-70
2023/02/25 05:02:44;;;;;;;2.77;2.43;;;7.50;41.40;;;;;;10362148;28;20718;-70
2023/02/25 05:07:49;;;;;;;3.30;2.80;;;7.50;41.80;;;;;;10358064;28;20610;-70
2023/02/25 05:12:52;;;;;;;2.93;2.63;;;7.50;41.70;;;;;;10362147;28;20229;-70
2023/02/25 05:17:55;;;;;;;3.57;2.73;;;7.50;41.90;;;;;;10358904;28;20241;-70
2023/02/25 05:23:00;;;;;;;4.30;3.17;;;7.50;41.80;;;;;;10361258;28;20593;-70
2023/02/25 05:28:03;;;;;;;5.00;2.67;;;7.50;41.50;;;;;;10359548;28;20218;-70
2023/02/25 05:33:09;;;;;;;3.23;2.40;;;7.50;41.50;;;;;;10359030;28;20683;-70
2023/02/25 05:38:13;;;;;;;4.07;2.87;;;7.50;41.80;;;;;;10359802;28;20226;-72
2023/02/25 05:43:16;;;;;;;4.10;2.77;;;7.40;41.70;;;;;;10360558;28;20234;-72
2023/02/25 05:48:19;;;;;;;2.87;2.53;;;7.40;41.70;;;;;;10360244;28;20249;-73
2023/02/25 05:53:24;;;;;;;4.67;2.60;;;7.40;41.50;;;;;;10360660;28;20222;-73
2023/02/25 05:58:27;;;;;;;3.13;2.67;;;7.40;41.50;;;;;;10358916;28;20234;-73
2023/02/25 06:03:30;;;;;;;5.43;2.80;;;7.40;41.60;;;;;;10359910;28;20226;-73
2023/02/25 06:08:35;;;;;;;3.40;2.97;;;7.30;41.50;;;;;;10356744;28;20284;-73
2023/02/25 06:13:38;;;;;;;4.93;3.43;;;7.30;41.60;;;;;;10359562;28;20435;-73
2023/02/25 06:18:41;;;;;;;4.00;3.10;;;7.20;41.80;;;;;;10357935;28;20757;-73
2023/02/25 06:23:45;;;;;;;4.70;3.47;;;7.10;41.80;;;;;;10359196;28;20825;-75
2023/02/25 06:28:48;;;;;;;4.53;4.03;;;7.10;41.90;;;;;;10353717;28;20230;-73
2023/02/25 06:33:53;;;;;;;4.83;3.50;;;7.00;41.90;;;;;;10359000;28;20233;-73
2023/02/25 06:38:58;;;;;;;4.83;3.80;;;7.00;41.90;;;;;;10357006;28;20229;-70
2023/02/25 06:44:03;;;;;;;4.60;3.63;;;7.00;42.70;;;;;;10358210;28;20711;-71
2023/02/25 06:49:06;;;;;;;4.20;3.40;;;7.00;42.20;;;;;;10357069;28;20222;-70
2023/02/25 06:54:10;;;;;;;4.30;3.10;;;6.90;42.10;;;;;;10358968;28;20226;-70
2023/02/25 06:59:13;;;;;;;4.23;2.80;;;6.90;42.10;;;;;;10356758;28;20722;-70
2023/02/25 07:04:18;;;;;;;3.80;2.67;;;6.90;42.00;;;;;;10355644;28;20711;-70
2023/02/25 07:09:23;;;;;;;6.00;2.97;;;7.00;42.00;;;;;;10357136;28;20233;-70
2023/02/25 07:14:26;;;;;;;2.80;2.27;;;7.00;42.10;;;;;;10356604;28;20222;-70
2023/02/25 07:19:29;;;;;;;3.70;2.40;;;7.00;41.80;;;;;;10358152;28;20602;-70
2023/02/25 07:24:34;;;;;;;4.97;3.00;;;7.10;41.80;;;;;;10357007;28;20234;-70
2023/02/25 07:29:37;;;;;;;2.77;2.17;;;7.10;41.60;;;;;;10354780;28;20721;-70
2023/02/25 07:34:40;;;;;;;3.93;2.57;;;7.10;41.80;;;;;;10358469;28;20235;-70
2023/02/25 07:39:45;;;;;;;4.60;2.27;;;7.10;41.80;;;;;;10356721;28;20718;-70
2023/02/25 07:44:50;;;;;;;4.03;2.10;;;7.10;41.60;;;;;;10365130;28;20222;-70
2023/02/25 07:49:53;;;;;;;2.23;2.00;;;7.20;41.60;;;;;;10363203;28;20584;-70
2023/02/25 07:54:58;;;;;;;2.83;2.10;;;7.10;41.60;;;;;;10364394;28;20714;-70
2023/02/25 08:00:01;;;;;;;3.87;2.10;;;7.10;41.20;;;;;;10362698;28;20218;-70
2023/02/25 08:05:05;;;;;;;3.97;2.77;;;7.10;41.40;;;;;;10363519;28;20225;-70
2023/02/25 08:10:12;;;;;;;3.00;2.00;;;7.10;41.60;;;;;;10356794;28;20234;-70
2023/02/25 08:15:16;;;;;;;4.00;2.27;;;7.10;41.30;;;;;;10361677;28;20226;-70
2023/02/25 08:20:19;;;;;;;3.67;2.33;;;7.20;41.60;;;;;;10362820;28;20305;-70
2023/02/25 08:25:23;;;;;;;5.03;2.53;;;7.20;41.70;;;;;;10360345;28;20238;-71
2023/02/25 08:30:27;;;;;;;5.33;2.70;;;7.30;42.30;;;;;;10360706;28;20234;-71
2023/02/25 08:35:30;;;;;;;3.67;2.37;;;7.30;41.90;;;;;;10362478;28;20234;-70
2023/02/25 08:40:35;;;;;;;4.63;2.50;;;7.40;42.10;;;;;;10362301;28;20233;-71
2023/02/25 08:45:40;;;;;;;4.53;2.37;;;7.50;41.70;;;;;;10362540;28;20234;-69
2023/02/25 08:50:43;;;;;;;2.73;1.90;;;7.60;42.10;;;;;;10360883;28;20233;-71
2023/02/25 08:55:48;;;;;;;2.50;1.90;;;7.70;41.80;;;;;;10360791;28;20230;-70
2023/02/25 09:00:53;;;;;;;4.17;1.83;;;7.80;41.10;;;;;;10362351;28;20608;-71
2023/02/25 09:05:57;;;;;;;2.50;1.80;;;7.90;40.20;;;;;;10360566;28;20230;-70
2023/02/25 09:11:05;;;;;;;4.00;1.67;;;8.00;39.30;;;;;;10359179;28;20246;-70
2023/02/25 09:16:09;;;;;;;3.03;1.43;;;8.00;39.10;;;;;;10359413;28;20230;-70
2023/02/25 09:21:13;;;;;;;3.20;1.50;;;8.10;39.30;;;;;;10361761;28;20300;-70
2023/02/25 09:26:18;;;;;;;5.70;1.73;;;8.30;39.50;;;;;;10360011;28;20226;-70
2023/02/25 09:31:21;;;;;;;4.17;1.60;;;8.40;38.80;;;;;;10359373;28;20245;-70
2023/02/25 09:36:25;;;;;;;3.33;1.30;;;8.50;38.80;;;;;;10360939;28;20261;-70
2023/02/25 09:41:35;;;;;;;1.70;1.50;;;8.60;38.50;;;;;;10360551;28;20230;-70
2023/02/25 09:46:45;;;;;;;3.07;1.87;;;8.70;36.50;;;;;;10359577;28;20238;-70
2023/02/25 09:51:55;;;;;;;2.23;1.40;;;8.80;37.20;;;;;;10360963;28;20230;-70
2023/02/25 09:57:02;;;;;;;2.70;1.33;;;8.90;37.20;;;;;;10357967;28;20668;-70
2023/02/25 10:02:20;;;;;;;2.40;1.47;;;8.90;36.10;;;;;;10360050;28;20218;-70
2023/02/25 10:07:32;;;;;;;4.63;1.20;;;9.00;35.40;;;;;;10355267;28;20234;-70
2023/02/25 10:12:46;;;;;;;2.70;1.27;;;8.90;35.00;;;;;;10357738;28;20712;-70
2023/02/25 10:18:11;;;;;;;2.07;0.93;;;8.80;33.90;;;;;;10357527;28;20230;-70
2023/02/25 10:23:27;;;;;;;2.53;0.90;;;8.80;34.70;;;;;;10358787;28;20218;-70
2023/02/25 10:28:33;;;;;;;2.83;1.03;;;8.80;33.90;;;;;;10356823;28;20255;-70
2023/02/25 10:33:39;;;;;;;2.13;1.00;;;8.70;34.90;;;;;;10359341;28;20234;-70
2023/02/25 10:38:45;;;;;;;2.93;1.23;;;8.70;35.30;;;;;;10356366;28;20280;-70
2023/02/25 10:43:51;;;;;;;1.50;1.07;;;8.70;35.20;;;;;;10357749;28;20226;-70
2023/02/25 10:48:57;;;;;;;3.60;1.33;;;8.70;36.00;;;;;;10357575;28;20233;-70
2023/02/25 10:54:05;;;;;;;3.07;1.47;;;8.70;35.30;;;;;;10356767;28;20233;-70
2023/02/25 10:59:25;;;;;;;2.40;1.20;;;8.70;36.80;;;;;;10357873;28;20312;-70
2023/02/25 11:04:34;;;;;;;2.70;1.50;;;8.60;34.70;;;;;;10357024;28;20229;-70
2023/02/25 11:09:38;;;;;;;1.57;1.10;;;8.70;35.80;;;;;;10355841;28;20222;-70
2023/02/25 11:14:43;;;;;;;1.53;1.40;;;8.70;36.20;;;;;;10357612;28;20233;-70
2023/02/25 11:19:50;;;;;;;4.70;2.50;;;8.60;35.90;;;;;;10363382;28;20226;-71
2023/02/25 11:24:58;;;;;;;2.60;1.10;;;8.60;36.20;;;;;;10363712;28;20232;-70
2023/02/25 11:30:15;;;;;;;1.43;1.00;;;8.60;36.00;;;;;;10364380;28;20245;-71
2023/02/25 11:35:24;;;;;;;3.33;1.10;;;8.70;35.10;;;;;;10364488;28;20695;-71
2023/02/25 11:40:29;;;;;;;3.43;1.17;;;8.70;35.30;;;;;;10362786;28;20223;-70
2023/02/25 11:45:35;;;;;;;2.07;1.20;;;8.70;35.30;;;;;;10364733;28;20230;-70
2023/02/25 11:50:47;;;;;;;2.13;1.23;;;8.70;35.80;;;;;;10363545;28;20230;-70
2023/02/25 11:56:01;;;;;;;2.33;1.30;;;8.70;35.00;;;;;;10362731;28;20241;-71
2023/02/25 12:01:17;;;;;;;2.00;1.50;;;8.70;34.00;;;;;;10363165;28;20591;-71
2023/02/25 12:06:36;;;;;;;2.73;1.23;;;8.60;34.70;;;;;;10362475;28;20234;-70
2023/02/25 12:12:09;;;;;;;2.37;1.30;;;8.60;33.70;;;;;;10362310;28;20628;-70
2023/02/25 12:17:52;;;;;;;4.33;1.83;;;8.60;34.00;;;;;;10361668;28;20273;-70
2023/02/25 12:23:28;;;;;;;2.90;1.60;;;8.60;34.50;;;;;;10347710;28;20296;-70
2023/02/25 12:28:50;;;;;;;2.33;1.40;;;8.60;33.60;;;;;;10359005;28;20241;-70
2023/02/25 12:34:15;;;;;;;2.93;1.30;;;8.50;34.40;;;;;;10362354;28;20741;-70
2023/02/25 12:39:43;;;;;;;2.83;1.80;;;8.40;33.90;;;;;;10360907;28;20238;-70
2023/02/25 12:45:01;;;;;;;3.37;1.53;;;8.40;34.40;;;;;;10360432;28;20765;-71
2023/02/25 12:50:34;;;;;;;1.60;1.13;;;8.40;34.80;;;;;;10362429;28;20214;-73
2023/02/25 12:55:52;;;;;;;2.20;1.37;;;8.40;34.80;;;;;;10362363;28;20230;-73
2023/02/25 13:01:17;;;;;;;4.57;1.20;;;8.50;34.50;;;;;;10360684;28;20221;-74
2023/02/25 13:07:00;;;;;;;2.47;1.10;;;8.50;33.80;;;;;;10362335;28;20229;-69
2023/02/25 13:12:23;;;;;;;1.27;0.97;;;8.70;33.80;;;;;;10359115;28;20230;-70
2023/02/25 13:17:36;;;;;;;2.93;1.27;;;8.90;34.40;;;;;;10360104;28;20237;-69
2023/02/25 13:22:53;;;;;;;1.47;0.90;;;9.00;34.00;;;;;;10356604;28;20230;-70
2023/02/25 13:28:22;;;;;;;1.70;0.90;;;9.10;33.80;;;;;;10358450;28;20225;-69
2023/02/25 13:33:39;;;;;;;2.30;1.03;;;9.10;33.10;;;;;;10359341;28;20312;-70
2023/02/25 13:39:01;;;;;;;2.43;1.00;;;9.20;33.60;;;;;;10357063;28;20234;-69
2023/02/25 13:44:27;;;;;;;1.23;0.80;;;9.20;32.50;;;;;;10357187;28;20676;-70
2023/02/25 13:50:10;;;;;;;1.70;1.00;;;9.20;33.10;;;;;;10359967;28;20234;-69
2023/02/25 13:55:28;;;;;;;1.07;0.80;;;9.20;34.00;;;;;;10356799;28;20222;-69
2023/02/25 14:00:53;;;;;;;1.40;1.00;;;9.30;33.50;;;;;;10359875;28;20225;-69
2023/02/25 14:06:08;;;;;;;3.37;1.70;;;9.30;32.40;;;;;;10359798;28;20661;-69
2023/02/25 14:11:27;;;;;;;2.50;1.30;;;9.30;32.30;;;;;;10354160;28;20226;-70
2023/02/25 14:16:48;;;;;;;2.10;1.20;;;9.30;33.60;;;;;;10355191;28;20226;-70
2023/02/25 14:22:18;;;;;;;1.70;1.33;;;9.40;33.80;;;;;;10357395;28;20651;-69
2023/02/25 14:27:33;;;;;;;2.23;1.00;;;9.50;34.30;;;;;;10352558;28;20233;-68
2023/02/25 14:33:01;;;;;;;1.27;1.00;;;9.50;32.50;;;;;;10356692;28;20274;-70
2023/02/25 14:38:08;;;;;;;2.17;1.00;;;9.40;32.70;;;;;;10356091;28;20226;-73
2023/02/25 14:43:33;;;;;;;1.70;1.10;;;9.40;33.60;;;;;;10356613;28;20237;-70
2023/02/25 14:48:43;;;;;;;1.13;1.00;;;9.30;33.00;;;;;;10355268;28;20323;-69
2023/02/25 14:54:11;;;;;;;1.77;0.97;;;9.20;33.40;;;;;;10355306;28;20246;-69
2023/02/25 14:59:55;;;;;;;0.97;0.90;;;9.10;33.80;;;;;;10337750;28;20776;-69
2023/02/25 15:05:38;;;;;;;1.90;1.10;;;9.10;33.60;;;;;;10333419;28;20226;-69
2023/02/25 15:11:03;;;;;;;2.20;1.13;;;9.00;34.00;;;;;;10357927;28;20217;-69
2023/02/25 15:16:40;;;;;;;2.60;1.03;;;9.00;33.80;;;;;;10357589;28;20248;-69
2023/02/25 15:21:47;;;;;;;2.23;1.00;;;8.90;33.10;;;;;;10351733;28;20233;-69
2023/02/25 15:26:50;;;;;;;1.47;1.20;;;8.80;34.60;;;;;;10357512;28;20715;-69
2023/02/25 15:32:15;;;;;;;1.10;0.90;;;8.80;35.10;;;;;;10355154;28;20222;-69
2023/02/25 15:37:36;;;;;;;1.43;1.00;;;8.80;34.10;;;;;;10356609;28;20318;-70
2023/02/25 15:42:48;;;;;;;1.77;1.00;;;8.80;34.00;;;;;;10355872;28;20233;-69
2023/02/25 15:48:28;;;;;;;0.50;0.50;;;8.70;35.40;;;;;;10351881;28;20229;-68
2023/02/25 15:53:41;;;;;;;0.50;0.50;;;8.60;36.30;;;;;;10353566;28;20233;-69
2023/02/25 15:58:51;;;;;;;0.80;0.80;;;8.20;36.60;;;;;;10355513;28;20229;-68
2023/02/25 16:03:55;;;;;;;1.90;0.70;;;7.80;37.00;;;;;;10361128;28;20272;-71
2023/02/25 16:09:08;;;;;;;0.50;0.50;;;7.50;36.90;;;;;;10363170;28;20957;-72
2023/02/25 16:14:17;;;;;;;0.50;0.50;;;7.30;37.90;;;;;;10356228;28;20309;-72
2023/02/25 16:19:24;;;;;;;0.80;0.80;;;7.20;38.00;;;;;;10358988;28;20244;-69
2023/02/25 16:24:29;;;;;;;0.50;0.50;;;7.10;37.80;;;;;;10355422;28;20324;-69
2023/02/25 16:29:44;;;;;;;0.60;0.60;;;7.00;38.00;;;;;;10359158;28;20234;-69
2023/02/25 16:34:56;;;;;;;0.50;0.50;;;7.00;38.40;;;;;;10359643;28;20218;-69
2023/02/25 16:40:01;;;;;;;0.57;0.57;;;6.90;38.30;;;;;;10359499;28;20233;-69
2023/02/25 16:45:06;;;;;;;0.67;0.67;;;6.80;38.30;;;;;;10359164;28;20233;-70
2023/02/25 16:50:14;;;;;;;0.67;0.67;;;6.80;38.20;;;;;;10357593;28;20234;-70
2023/02/25 16:55:22;;;;;;;0.80;0.80;;;6.80;38.30;;;;;;10359394;28;20226;-70
2023/02/25 17:00:25;;;;;;;1.47;1.37;;;6.80;38.30;;;;;;10361876;28;20580;-70
2023/02/25 17:05:32;;;;;;;1.93;1.60;;;6.70;38.20;;;;;;10360308;28;20222;-70
2023/02/25 17:10:46;;;;;;;1.97;1.17;;;6.70;38.60;;;;;;10359079;28;20226;-70
2023/02/25 17:15:50;;;;;;;2.03;1.00;;;6.50;38.60;;;;;;10358610;28;20230;-70
2023/02/25 17:21:00;;;;;;;1.93;1.13;;;6.40;37.90;;;;;;10357901;28;20234;-70
2023/02/25 17:26:06;;;;;;;1.00;1.00;;;6.30;38.50;;;;;;10358866;28;20669;-70
2023/02/25 17:31:12;;;;;;;1.80;1.70;;;6.20;38.20;;;;;;10358293;28;20581;-70
2023/02/25 17:36:17;;;;;;;12.73;11.43;;;6.20;38.40;;;;;;10358842;28;20230;-70
2023/02/25 17:41:23;;;;;;;3.70;3.40;;;6.20;38.60;;;;;;10360352;28;20405;-70
2023/02/25 17:46:34;;;;;;;2.60;2.40;;;6.20;38.80;;;;;;10358883;28;20230;-70
2023/02/25 17:51:38;;;;;;;1.97;1.87;;;6.30;38.80;;;;;;10360480;28;20292;-70
2023/02/25 17:56:43;;;;;;;2.20;1.50;;;6.30;38.60;;;;;;10357833;28;20230;-70
2023/02/25 18:01:48;;;;;;;1.60;1.50;;;6.30;38.50;;;;;;10358498;28;20222;-70
2023/02/25 18:06:54;;;;;;;2.20;1.50;;;6.30;38.60;;;;;;10356315;28;20226;-70
2023/02/25 18:12:00;;;;;;;1.70;1.60;;;6.30;38.70;;;;;;10358123;28;20268;-70
2023/02/25 18:17:13;;;;;;;1.77;1.67;;;6.30;39.00;;;;;;10356980;28;20263;-71
2023/02/25 18:22:30;;;;;;;2.10;1.90;;;6.20;39.50;;;;;;10357573;28;20224;-70
2023/02/25 18:27:36;;;;;;;1.70;1.60;;;6.20;39.90;;;;;;10356852;28;20241;-70
2023/02/25 18:32:39;;;;;;;1.40;1.30;;;6.10;39.40;;;;;;10359015;28;20237;-70
2023/02/25 18:37:44;;;;;;;1.83;1.70;;;6.00;39.20;;;;;;10357036;28;20292;-70
2023/02/25 18:42:49;;;;;;;1.50;1.40;;;6.00;39.40;;;;;;10356937;28;20257;-71
2023/02/25 18:47:55;;;;;;;2.57;2.37;;;6.00;39.70;;;;;;10351492;28;20233;-70
2023/02/25 18:52:59;;;;;;;2.00;1.90;;;6.00;39.70;;;;;;10351931;28;20230;-71
2023/02/25 18:58:04;;;;;;;1.90;1.80;;;6.10;39.70;;;;;;10352487;28;20230;-71
2023/02/25 19:03:08;;;;;;;2.10;2.00;;;6.10;39.70;;;;;;10350270;28;20222;-70
2023/02/25 19:08:14;;;;;;;2.03;1.93;;;6.10;39.70;;;;;;10350721;28;20316;-70
2023/02/25 19:13:23;;;;;;;1.90;1.50;;;6.10;39.80;;;;;;10345184;28;20226;-70
2023/02/25 19:18:28;;;;;;;1.70;1.60;;;6.00;40.10;;;;;;10353252;28;20308;-70
2023/02/25 19:23:31;;;;;;;1.40;1.30;;;6.00;39.80;;;;;;10353267;28;20737;-70
2023/02/25 19:28:36;;;;;;;1.80;1.70;;;6.00;39.90;;;;;;10358016;28;20230;-70
2023/02/25 19:33:39;;;;;;;3.23;2.50;;;6.00;40.00;;;;;;10353558;28;20238;-70
2023/02/25 19:38:42;;;;;;;2.00;1.90;;;6.10;40.00;;;;;;10348269;28;20230;-70
2023/02/25 19:43:47;;;;;;;2.20;2.00;;;6.10;40.00;;;;;;10345819;28;20230;-70
2023/02/25 19:48:50;;;;;;;2.30;2.03;;;6.00;39.90;;;;;;10350837;28;20222;-69
2023/02/25 19:53:53;;;;;;;2.33;1.87;;;6.00;39.80;;;;;;10358676;28;20230;-69
2023/02/25 19:58:58;;;;;;;1.80;1.70;;;6.00;39.80;;;;;;10363036;28;20230;-69
2023/02/25 20:04:01;;;;;;;2.20;2.00;;;6.00;40.10;;;;;;10359973;28;20219;-69
2023/02/25 20:09:06;;;;;;;2.40;1.70;;;6.00;40.00;;;;;;10359525;28;20738;-69
2023/02/25 20:14:12;;;;;;;2.20;2.00;;;6.00;40.00;;;;;;10362900;28;20230;-69
2023/02/25 20:19:16;;;;;;;5.70;5.20;;;6.00;40.20;;;;;;10345844;28;20602;-69
2023/02/25 20:24:19;;;;;;;4.03;3.63;;;5.90;40.10;;;;;;10371189;28;20229;-69
2023/02/25 20:29:24;;;;;;;2.30;2.10;;;5.70;40.30;;;;;;10361913;28;20237;-69
2023/02/25 20:34:28;;;;;;;2.30;2.00;;;5.60;40.70;;;;;;10361214;28;20234;-69
2023/02/25 20:39:42;;;;;;;2.53;1.87;;;5.50;40.80;;;;;;10347224;28;20233;-69
2023/02/25 20:44:48;;;;;;;1.33;1.23;;;5.40;41.30;;;;;;10356273;28;20234;-69
2023/02/25 20:49:58;;;;;;;1.20;1.13;;;5.30;40.70;;;;;;10358239;28;20226;-69
2023/02/25 20:55:01;;;;;;;1.20;1.10;;;5.30;40.40;;;;;;10358855;28;20449;-69
2023/02/25 21:00:07;;;;;;;1.03;0.93;;;5.30;39.90;;;;;;10357787;28;20594;-69
2023/02/25 21:05:11;;;;;;;0.77;0.77;;;5.40;40.00;;;;;;10355656;28;20233;-69
2023/02/25 21:10:14;;;;;;;0.70;0.70;;;5.40;39.80;;;;;;10359090;28;20222;-69
2023/02/25 21:15:18;;;;;;;0.70;0.70;;;5.40;39.70;;;;;;10358489;28;20254;-68
2023/02/25 21:20:22;;;;;;;1.00;1.00;;;5.40;39.70;;;;;;10357082;28;20238;-68
2023/02/25 21:25:25;;;;;;;0.70;0.70;;;5.40;39.60;;;;;;10353030;28;20230;-68
2023/02/25 21:30:29;;;;;;;0.70;0.70;;;5.50;39.70;;;;;;10354020;28;20721;-68
2023/02/25 21:35:33;;;;;;;0.70;0.70;;;5.50;39.60;;;;;;10355683;28;20295;-69
2023/02/25 21:40:36;;;;;;;0.70;0.70;;;5.50;39.50;;;;;;10355336;28;20737;-68
2023/02/25 21:45:40;;;;;;;0.70;0.70;;;5.60;39.50;;;;;;10353949;28;20524;-68
2023/02/25 21:50:45;;;;;;;0.73;0.73;;;5.60;39.60;;;;;;10353184;28;20534;-68
2023/02/25 21:55:49;;;;;;;0.70;0.70;;;5.60;39.70;;;;;;10352650;28;20614;-68
2023/02/25 22:00:53;;;;;;;1.23;1.20;;;5.70;39.70;;;;;;10353838;28;20233;-68
2023/02/25 22:05:57;;;;;;;1.90;1.80;;;5.70;39.60;;;;;;10349803;28;20234;-68
2023/02/25 22:11:00;;;;;;;1.40;1.30;;;5.70;39.10;;;;;;10350995;28;20249;-68
2023/02/25 22:16:05;;;;;;;1.07;1.07;;;5.70;39.00;;;;;;10351055;28;20781;-68
2023/02/25 22:21:10;;;;;;;1.13;1.10;;;5.60;39.10;;;;;;10353648;28;20226;-68
2023/02/25 22:26:16;;;;;;;1.40;1.30;;;5.50;39.20;;;;;;10351665;28;20237;-70
2023/02/25 22:31:22;;;;;;;2.30;1.33;;;5.30;39.10;;;;;;10353063;28;20222;-69
2023/02/25 22:36:25;;;;;;;1.33;1.30;;;5.20;39.30;;;;;;10352189;28;20230;-69
2023/02/25 22:41:29;;;;;;;1.40;1.30;;;5.20;39.40;;;;;;10350284;28;20256;-69
2023/02/25 22:46:35;;;;;;;1.33;1.27;;;5.20;39.60;;;;;;10353511;28;20657;-69
2023/02/25 22:51:41;;;;;;;1.27;1.17;;;5.10;39.70;;;;;;10351698;28;20230;-70
2023/02/25 22:56:45;;;;;;;1.10;1.00;;;5.10;39.60;;;;;;10351701;28;20316;-69
2023/02/25 23:01:50;;;;;;;1.90;1.30;;;5.00;39.50;;;;;;10353948;28;20230;-69
2023/02/25 23:06:54;;;;;;;0.93;0.93;;;4.90;39.60;;;;;;10347288;28;20254;-73
2023/02/25 23:11:58;;;;;;;0.87;0.87;;;4.90;39.60;;;;;;10361799;28;20233;-72
2023/02/25 23:17:03;;;;;;;0.70;0.70;;;4.80;39.60;;;;;;10365757;28;20380;-72
2023/02/25 23:22:06;;;;;;;0.60;0.60;;;4.80;39.80;;;;;;10367113;28;20222;-71
2023/02/25 23:27:09;;;;;;;0.70;0.70;;;4.60;39.80;;;;;;10366816;28;20729;-72
2023/02/25 23:32:14;;;;;;;1.10;0.70;;;4.60;40.00;;;;;;10365829;28;20226;-71
2023/02/25 23:37:17;;;;;;;1.07;0.80;;;4.60;40.10;;;;;;10366815;28;20321;-71
2023/02/25 23:42:20;;;;;;;0.97;0.80;;;4.60;40.00;;;;;;10364054;28;20235;-69
2023/02/25 23:47:25;;;;;;;0.80;0.80;;;4.60;40.80;;;;;;10366253;28;20241;-69
2023/02/25 23:52:28;;;;;;;1.17;0.90;;;4.40;40.30;;;;;;10366023;28;20233;-69
2023/02/25 23:57:32;;;;;;;1.10;0.80;;;4.30;40.50;;;;;;10365244;28;20226;-69
